createdAt,value
2023-03-11T09:23:58.304Z,1001.71
2023-03-11T09:24:58.234Z,1001.66
2023-03-11T09:25:58.252Z,1001.64
2023-03-11T09:26:58.248Z,1001.63
2023-03-11T09:27:58.258Z,1001.66
2023-03-11T09:28:58.273Z,1001.65
2023-03-11T09:29:58.276Z,1001.66
2023-03-11T09:30:58.281Z,1001.64
2023-03-11T09:31:58.284Z,1001.72
2023-03-11T09:32:58.297Z,1001.60
2023-03-11T09:33:58.304Z,1001.68
2023-03-11T09:34:58.315Z,1001.68
2023-03-11T09:35:58.341Z,1001.68
2023-03-11T09:36:58.331Z,1001.70
2023-03-11T09:37:58.344Z,1001.68
2023-03-11T09:38:58.346Z,1001.62
2023-03-11T09:39:58.372Z,1001.72
2023-03-11T09:40:58.362Z,1001.62
2023-03-11T09:41:59.333Z,1001.59
2023-03-11T09:42:58.395Z,1001.61
2023-03-11T09:43:58.405Z,1001.65
2023-03-11T09:44:58.484Z,1001.68
2023-03-11T09:45:58.407Z,1001.70
2023-03-11T09:46:58.469Z,1001.68
2023-03-11T09:47:58.423Z,1001.74
2023-03-11T09:48:58.418Z,1001.74
2023-03-11T09:49:58.441Z,1001.69
2023-03-11T09:50:58.444Z,1001.74
2023-03-11T09:51:58.456Z,1001.73
2023-03-11T09:52:58.459Z,1001.71
2023-03-11T09:53:58.462Z,1001.82
2023-03-11T09:54:58.468Z,1001.73
2023-03-11T09:55:58.496Z,1001.83
2023-03-11T09:56:58.482Z,1001.78
2023-03-11T09:57:58.494Z,1001.81
2023-03-11T09:58:58.506Z,1001.82
2023-03-11T09:59:58.521Z,1001.79
2023-03-11T10:00:58.524Z,1001.83
2023-03-11T10:01:58.589Z,1001.80
2023-03-11T10:02:58.624Z,1001.79
2023-03-11T10:03:58.552Z,1001.85
2023-03-11T10:04:58.558Z,1001.77
2023-03-11T10:05:58.567Z,1001.84
2023-03-11T10:06:58.585Z,1001.84
2023-03-11T10:07:58.592Z,1001.84
2023-03-11T10:08:58.595Z,1001.83
2023-03-11T10:09:58.618Z,1001.83
2023-03-11T10:10:58.619Z,1001.88
2023-03-11T10:11:58.644Z,1001.87
2023-03-11T10:12:58.636Z,1001.89
2023-03-11T10:13:58.633Z,1001.91
2023-03-11T10:14:58.645Z,1001.87
2023-03-11T10:15:58.650Z,1001.91
2023-03-11T10:16:58.660Z,1001.87
2023-03-11T10:17:58.669Z,1001.88
2023-03-11T10:18:58.674Z,1001.86
2023-03-11T10:19:58.674Z,1001.86
2023-03-11T10:20:58.684Z,1001.88
2023-03-11T10:21:58.698Z,1001.85
2023-03-11T10:22:58.693Z,1001.91
2023-03-11T10:23:58.711Z,1001.86
2023-03-11T10:24:58.709Z,1001.84
2023-03-11T10:25:58.718Z,1001.85
2023-03-11T10:26:58.730Z,1001.90
2023-03-11T10:27:58.752Z,1001.87
2023-03-11T10:28:58.739Z,1001.91
2023-03-11T10:29:58.742Z,1001.85
2023-03-11T10:30:58.752Z,1001.91
2023-03-11T10:31:58.795Z,1001.88
2023-03-11T10:32:58.771Z,1001.95
2023-03-11T10:33:58.769Z,1001.96
2023-03-11T10:34:58.771Z,1001.94
2023-03-11T10:35:58.840Z,1001.97
2023-03-11T10:36:58.785Z,1001.98
2023-03-11T10:37:58.793Z,1002.04
2023-03-11T10:38:58.800Z,1002.04
2023-03-11T10:39:58.859Z,1002.03
2023-03-11T10:40:58.811Z,1002.03
2023-03-11T10:41:58.818Z,1002.06
2023-03-11T10:42:58.825Z,1002.09
2023-03-11T10:43:58.855Z,1001.99
2023-03-11T10:44:58.838Z,1002.04
2023-03-11T10:45:58.864Z,1002.01
2023-03-11T10:46:58.852Z,1002.03
2023-03-11T10:47:58.866Z,1002.01
2023-03-11T10:48:58.866Z,1002.00
2023-03-11T10:49:58.875Z,1002.02
2023-03-11T10:50:58.881Z,1002.02
2023-03-11T10:51:58.888Z,1002.05
2023-03-11T10:52:58.909Z,1002.10
2023-03-11T10:53:58.918Z,1002.00
2023-03-11T10:54:58.948Z,1002.09
2023-03-11T10:55:58.932Z,1002.09
2023-03-11T10:56:58.946Z,1002.07
2023-03-11T10:57:58.956Z,1002.08
2023-03-11T10:58:58.967Z,1002.10
2023-03-11T10:59:58.991Z,1002.07
2023-03-11T11:00:59.004Z,1002.11
2023-03-11T11:01:58.996Z,1002.12
2023-03-11T11:02:59.002Z,1002.09
2023-03-11T11:03:59.039Z,1002.05
2023-03-11T11:04:59.027Z,1002.08
2023-03-11T11:05:59.049Z,1002.05
2023-03-11T11:06:59.058Z,1002.07
2023-03-11T11:07:59.065Z,1002.10
2023-03-11T11:08:59.076Z,1002.10
2023-03-11T11:09:59.086Z,1002.16
2023-03-11T11:10:59.094Z,1002.13
2023-03-11T11:11:59.103Z,1002.15
2023-03-11T11:12:59.162Z,1002.17
2023-03-11T11:13:59.121Z,1002.18
2023-03-11T11:14:59.131Z,1002.20
2023-03-11T11:15:59.158Z,1002.23
2023-03-11T11:16:59.209Z,1002.22
2023-03-11T11:17:59.161Z,1002.19
2023-03-11T11:18:59.160Z,1002.22
2023-03-11T11:19:59.185Z,1002.18
2023-03-11T11:20:59.175Z,1002.21
2023-03-11T11:21:59.191Z,1002.20
2023-03-11T11:22:59.202Z,1002.20
2023-03-11T11:23:59.197Z,1002.20
2023-03-11T11:24:59.232Z,1002.21
2023-03-11T11:25:59.210Z,1002.24
2023-03-11T11:26:59.225Z,1002.26
2023-03-11T11:27:59.229Z,1002.23
2023-03-11T11:28:59.234Z,1002.29
2023-03-11T11:29:59.239Z,1002.30
2023-03-11T11:30:59.319Z,1002.28
2023-03-11T11:31:59.271Z,1002.28
2023-03-11T11:32:59.325Z,1002.31
2023-03-11T11:33:59.258Z,1002.33
2023-03-11T11:34:59.259Z,1002.32
2023-03-11T11:35:59.275Z,1002.27
2023-03-11T11:36:59.271Z,1002.34
2023-03-11T11:37:59.281Z,1002.34
2023-03-11T11:38:59.290Z,1002.30
2023-03-11T11:39:59.290Z,1002.34
2023-03-11T11:40:59.299Z,1002.33
2023-03-11T11:41:59.329Z,1002.36
2023-03-11T11:42:59.334Z,1002.36
2023-03-11T11:43:59.313Z,1002.34
2023-03-11T11:44:59.336Z,1002.43
2023-03-11T11:45:59.352Z,1002.37
2023-03-11T11:46:59.339Z,1002.32
2023-03-11T11:47:59.383Z,1002.35
2023-03-11T11:48:59.367Z,1002.35
2023-03-11T11:49:59.357Z,1002.30
2023-03-11T11:50:59.352Z,1002.32
2023-03-11T11:51:59.377Z,1002.33
2023-03-11T11:52:59.367Z,1002.37
2023-03-11T11:53:59.384Z,1002.36
2023-03-11T11:54:59.396Z,1002.41
2023-03-11T11:55:59.397Z,1002.45
2023-03-11T11:56:59.395Z,1002.43
2023-03-11T11:57:59.402Z,1002.39
2023-03-11T11:58:59.416Z,1002.43
2023-03-11T11:59:59.428Z,1002.50
2023-03-11T12:00:59.428Z,1002.44
2023-03-11T12:01:59.443Z,1002.44
2023-03-11T12:02:59.447Z,1002.40
2023-03-11T12:03:59.576Z,1002.44
2023-03-11T12:04:59.461Z,1002.31
2023-03-11T12:05:59.607Z,1002.37
2023-03-11T12:06:59.484Z,1002.36
2023-03-11T12:07:59.495Z,1002.40
2023-03-11T12:08:59.502Z,1002.37
2023-03-11T12:10:01.968Z,1002.43
2023-03-11T12:10:59.519Z,1002.38
2023-03-11T12:11:59.519Z,1002.41
2023-03-11T12:12:59.528Z,1002.38
2023-03-11T12:13:59.579Z,1002.39
2023-03-11T12:14:59.552Z,1002.41
2023-03-11T12:15:59.596Z,1002.44
2023-03-11T12:17:00.221Z,1002.41
2023-03-11T12:17:59.571Z,1002.36
2023-03-11T12:18:59.575Z,1002.39
2023-03-11T12:19:59.614Z,1002.34
2023-03-11T12:20:59.602Z,1002.39
2023-03-11T12:21:59.606Z,1002.33
2023-03-11T12:22:59.621Z,1002.35
2023-03-11T12:23:59.629Z,1002.37
2023-03-11T12:24:59.632Z,1002.37
2023-03-11T12:25:59.636Z,1002.31
2023-03-11T12:26:59.655Z,1002.39
2023-03-11T12:27:59.665Z,1002.30
2023-03-11T12:28:59.697Z,1002.34
2023-03-11T12:29:59.712Z,1002.31
2023-03-11T12:30:59.728Z,1002.31
2023-03-11T12:33:07.292Z,1002.28
2023-03-11T12:34:07.309Z,1002.34
2023-03-11T12:35:07.335Z,1002.30
2023-03-11T12:36:07.367Z,1002.31
2023-03-11T12:37:07.334Z,1002.28
2023-03-11T12:38:07.345Z,1002.29
2023-03-11T12:39:07.363Z,1002.34
2023-03-11T12:40:07.371Z,1002.37
2023-03-11T12:41:07.391Z,1002.32
2023-03-11T12:42:07.389Z,1002.33
2023-03-11T12:43:07.392Z,1002.35
2023-03-11T12:44:07.407Z,1002.36
2023-03-11T12:45:07.409Z,1002.37
2023-03-11T12:46:07.430Z,1002.36
2023-03-11T12:47:07.442Z,1002.36
2023-03-11T12:48:07.439Z,1002.38
2023-03-11T12:49:07.458Z,1002.38
2023-03-11T12:50:07.461Z,1002.38
2023-03-11T12:51:07.509Z,1002.35
2023-03-11T12:56:51.735Z,1002.40
2023-03-11T12:57:51.744Z,1002.34
2023-03-11T12:58:51.754Z,1002.42
2023-03-11T12:59:51.760Z,1002.38
2023-03-11T13:00:51.772Z,1002.32
2023-03-11T13:01:51.843Z,1002.28
2023-03-11T13:02:51.872Z,1002.31
2023-03-11T13:03:51.826Z,1002.32
2023-03-11T13:04:51.838Z,1002.34
2023-03-11T13:05:51.836Z,1002.28
2023-03-11T13:06:51.883Z,1002.29
2023-03-11T13:07:51.873Z,1002.36
2023-03-11T13:08:51.902Z,1002.39
2023-03-11T13:09:51.894Z,1002.38
2023-03-11T13:10:51.912Z,1002.38
2023-03-11T13:11:51.918Z,1002.35
2023-03-11T13:12:51.940Z,1002.36
2023-03-11T13:13:51.953Z,1002.39
2023-03-11T13:14:51.966Z,1002.43
2023-03-11T13:15:52.040Z,1002.40
2023-03-11T13:16:51.994Z,1002.45
2023-03-11T13:17:52.002Z,1002.46
2023-03-11T13:18:52.041Z,1002.52
2023-03-11T13:19:52.027Z,1002.49
2023-03-11T13:20:52.059Z,1002.53
2023-03-11T13:21:52.049Z,1002.52
2023-03-11T13:22:52.082Z,1002.51
2023-03-11T13:23:52.073Z,1002.48
2023-03-11T13:24:52.107Z,1002.51
2023-03-11T13:25:52.106Z,1002.54
2023-03-11T13:26:52.122Z,1002.51
2023-03-11T13:27:52.129Z,1002.56
2023-03-11T13:28:52.141Z,1002.54
2023-03-11T13:29:52.156Z,1002.53
2023-03-11T13:30:52.167Z,1002.55
2023-03-11T13:31:52.211Z,1002.55
2023-03-11T13:32:52.236Z,1002.59
2023-03-11T13:33:52.204Z,1002.61
2023-03-11T13:34:52.212Z,1002.63
2023-03-11T13:35:52.253Z,1002.55
2023-03-11T13:36:52.226Z,1002.66
2023-03-11T13:37:52.256Z,1002.62
2023-03-11T13:38:52.277Z,1002.67
2023-03-11T13:39:52.268Z,1002.62
2023-03-11T13:40:52.272Z,1002.74
2023-03-11T13:41:52.286Z,1002.70
2023-03-11T13:42:52.291Z,1002.63
2023-03-11T13:43:52.307Z,1002.64
2023-03-11T13:44:52.316Z,1002.67
2023-03-11T13:45:52.367Z,1002.69
2023-03-11T13:46:52.335Z,1002.69
2023-03-11T13:47:52.346Z,1002.73
2023-03-11T13:48:52.348Z,1002.74
2023-03-11T13:49:52.361Z,1002.77
2023-03-11T13:50:52.373Z,1002.78
2023-03-11T13:51:52.421Z,1002.78
2023-03-11T13:52:52.385Z,1002.78
2023-03-11T13:53:52.400Z,1002.81
2023-03-11T13:54:52.447Z,1002.91
2023-03-11T13:55:52.418Z,1002.89
2023-03-11T13:56:52.426Z,1002.86
2023-03-11T13:57:52.438Z,1002.88
2023-03-11T13:58:52.464Z,1002.88
2023-03-11T13:59:52.465Z,1002.89
2023-03-11T14:00:52.536Z,1002.89
2023-03-11T14:01:52.495Z,1002.87
2023-03-11T14:02:52.504Z,1002.90
2023-03-11T14:03:52.544Z,1002.89
2023-03-11T14:04:52.519Z,1002.96
2023-03-11T14:05:52.539Z,1003.01
2023-03-11T14:06:52.554Z,1002.94
2023-03-11T14:07:52.565Z,1002.97
2023-03-11T14:08:52.572Z,1003.03
2023-03-11T14:09:52.591Z,1002.98
2023-03-11T14:10:52.626Z,1002.96
2023-03-11T14:11:52.614Z,1002.96
2023-03-11T14:12:52.635Z,1003.00
2023-03-11T14:13:52.636Z,1003.01
2023-03-11T14:14:52.657Z,1003.07
2023-03-11T14:15:52.661Z,1003.02
2023-03-11T14:16:52.697Z,1003.04
2023-03-11T14:17:52.694Z,1003.03
2023-03-11T14:18:52.700Z,1003.02
2023-03-11T14:19:52.712Z,1003.04
2023-03-11T14:20:52.825Z,1003.02
2023-03-11T14:21:52.744Z,1002.99
2023-03-11T14:22:52.756Z,1003.02
2023-03-11T14:23:52.757Z,1003.06
2023-03-11T14:24:52.774Z,1003.01
2023-03-11T14:25:52.785Z,1003.05
2023-03-11T14:26:52.828Z,1003.09
2023-03-11T14:27:52.812Z,1003.07
2023-03-11T14:30:35.380Z,1003.16
2023-03-11T14:31:35.451Z,1003.12
2023-03-11T14:32:35.503Z,1003.11
2023-03-11T14:33:35.432Z,1003.10
2023-03-11T14:34:35.430Z,1003.08
2023-03-11T14:35:35.482Z,1003.11
2023-03-11T14:36:35.463Z,1003.05
2023-03-11T14:37:35.485Z,1003.11
2023-03-11T14:38:35.491Z,1003.19
2023-03-11T14:39:35.495Z,1003.18
2023-03-11T14:40:35.515Z,1003.16
2023-03-11T14:41:35.527Z,1003.22
2023-03-11T14:42:35.584Z,1003.18
2023-03-11T14:43:35.549Z,1003.17
2023-03-11T14:44:35.566Z,1003.23
2023-03-11T14:45:35.611Z,1003.16
2023-03-11T14:46:35.587Z,1003.23
2023-03-11T14:47:35.614Z,1003.21
2023-03-11T14:48:35.610Z,1003.21
2023-03-11T14:49:35.631Z,1003.23
2023-03-11T14:50:35.644Z,1003.23
2023-03-11T14:51:35.666Z,1003.21
2023-03-11T14:52:35.662Z,1003.29
2023-03-11T14:53:35.688Z,1003.29
2023-03-11T14:54:35.687Z,1003.31
2023-03-11T14:55:35.707Z,1003.24
2023-03-11T14:56:35.741Z,1003.30
2023-03-11T14:57:35.729Z,1003.26
2023-03-11T14:58:35.842Z,1003.32
2023-03-11T14:59:35.763Z,1003.35
2023-03-11T15:00:35.774Z,1003.28
2023-03-11T15:01:35.809Z,1003.26
2023-03-11T15:02:35.793Z,1003.27
2023-03-11T15:03:35.944Z,1003.30
2023-03-11T15:04:35.823Z,1003.31
2023-03-11T15:05:35.837Z,1003.33
2023-03-11T15:06:35.858Z,1003.29
2023-03-11T15:07:35.857Z,1003.33
2023-03-11T15:08:35.870Z,1003.35
2023-03-11T15:09:35.885Z,1003.36
2023-03-11T15:10:35.985Z,1003.38
2023-03-11T15:11:35.900Z,1003.39
2023-03-11T15:12:35.926Z,1003.34
2023-03-11T15:13:35.927Z,1003.37
2023-03-11T15:14:35.962Z,1003.34
2023-03-11T15:15:35.939Z,1003.35
2023-03-11T15:16:36.000Z,1003.38
2023-03-11T15:17:42.779Z,1003.38
2023-03-11T15:18:35.975Z,1003.44
2023-03-11T15:19:35.980Z,1003.42
2023-03-11T15:20:36.203Z,1003.41
2023-03-11T15:21:36.001Z,1003.38
2023-03-11T15:22:36.016Z,1003.43
2023-03-11T15:23:36.041Z,1003.40
2023-03-11T15:24:36.028Z,1003.44
2023-03-11T15:25:36.044Z,1003.47
2023-03-11T15:26:36.045Z,1003.39
2023-03-11T15:27:36.073Z,1003.45
2023-03-11T15:28:36.075Z,1003.42
2023-03-11T15:29:36.086Z,1003.43
2023-03-11T15:30:36.211Z,1003.46
2023-03-11T15:31:36.096Z,1003.42
2023-03-11T15:32:36.161Z,1003.46
2023-03-11T15:33:36.111Z,1003.43
2023-03-11T15:34:36.120Z,1003.47
2023-03-11T15:35:36.177Z,1003.48
2023-03-11T15:36:36.136Z,1003.47
2023-03-11T15:37:36.150Z,1003.46
2023-03-11T15:38:36.153Z,1003.55
2023-03-11T15:39:36.166Z,1003.51
2023-03-11T15:40:45.305Z,1003.55
2023-03-11T15:41:36.179Z,1003.56
2023-03-11T15:42:36.188Z,1003.56
2023-03-11T15:43:36.203Z,1003.63
2023-03-11T15:44:36.241Z,1003.60
2023-03-11T15:45:36.205Z,1003.58
2023-03-11T15:46:36.324Z,1003.59
2023-03-11T15:47:36.271Z,1003.62
2023-03-11T15:48:36.232Z,1003.57
2023-03-11T15:49:36.241Z,1003.62
2023-03-11T15:50:52.142Z,1003.61
2023-03-11T15:51:36.263Z,1003.60
2023-03-11T15:52:36.270Z,1003.65
2023-03-11T15:53:36.269Z,1003.67
2023-03-11T15:54:36.290Z,1003.63
2023-03-11T15:55:36.294Z,1003.66
2023-03-11T15:56:36.290Z,1003.70
2023-03-11T15:57:36.297Z,1003.68
2023-03-11T15:58:36.308Z,1003.69
2023-03-11T15:59:36.312Z,1003.73
2023-03-11T16:00:36.323Z,1003.75
2023-03-11T16:01:36.326Z,1003.74
2023-03-11T16:02:36.361Z,1003.76
2023-03-11T16:03:36.370Z,1003.77
2023-03-11T16:04:36.459Z,1003.72
2023-03-11T16:05:36.354Z,1003.74
2023-03-11T16:06:36.366Z,1003.77
2023-03-11T16:07:39.857Z,1003.76
2023-03-11T16:08:36.372Z,1003.83
2023-03-11T16:09:36.385Z,1003.81
2023-03-11T16:10:36.386Z,1003.83
2023-03-11T16:11:36.398Z,1003.84
2023-03-11T16:12:36.412Z,1003.84
2023-03-11T16:13:36.411Z,1003.88
2023-03-11T16:14:36.408Z,1003.85
2023-03-11T16:15:36.457Z,1003.85
2023-03-11T16:16:36.428Z,1003.87
2023-03-11T16:17:49.024Z,1003.91
2023-03-11T16:18:36.449Z,1003.91
2023-03-11T16:19:36.443Z,1003.91
2023-03-11T16:20:36.447Z,1003.98
2023-03-11T16:21:36.462Z,1003.93
2023-03-11T16:22:36.470Z,1003.89
2023-03-11T16:23:50.749Z,1003.88
2023-03-11T16:24:36.470Z,1003.94
2023-03-11T16:25:36.475Z,1003.95
2023-03-11T16:26:36.474Z,1003.97
2023-03-11T16:27:36.498Z,1003.93
2023-03-11T16:28:36.481Z,1003.95
2023-03-11T16:29:36.499Z,1003.95
2023-03-11T16:30:36.492Z,1003.96
2023-03-11T16:31:36.573Z,1003.98
2023-03-11T16:32:36.608Z,1003.98
2023-03-11T16:33:36.514Z,1003.99
2023-03-11T16:34:36.543Z,1004.00
2023-03-11T16:35:36.564Z,1004.02
2023-03-11T16:36:36.519Z,1004.02
2023-03-11T16:37:36.521Z,1004.04
2023-03-11T16:38:36.529Z,1004.06
2023-03-11T16:39:36.530Z,1004.07
2023-03-11T16:40:36.545Z,1004.07
2023-03-11T16:41:36.545Z,1004.09
2023-03-11T16:42:36.553Z,1004.12
2023-03-11T16:43:36.548Z,1004.08
2023-03-11T16:44:36.565Z,1004.12
2023-03-11T16:45:36.564Z,1004.10
2023-03-11T16:46:36.598Z,1004.10
2023-03-11T16:47:36.572Z,1004.15
2023-03-11T16:48:36.571Z,1004.10
2023-03-11T16:49:36.582Z,1004.11
2023-03-11T16:50:37.693Z,1004.16
2023-03-11T16:51:36.590Z,1004.19
2023-03-11T16:52:36.712Z,1004.16
2023-03-11T16:53:36.597Z,1004.18
2023-03-11T16:54:36.595Z,1004.20
2023-03-11T16:55:36.605Z,1004.19
2023-03-11T16:56:36.611Z,1004.22
2023-03-11T16:57:36.613Z,1004.24
2023-03-11T16:58:36.618Z,1004.21
2023-03-11T16:59:36.621Z,1004.26
2023-03-11T17:00:36.627Z,1004.26
2023-03-11T17:01:36.647Z,1004.26
2023-03-11T17:02:36.626Z,1004.26
2023-03-11T17:03:42.521Z,1004.31
2023-03-11T17:04:36.654Z,1004.27
2023-03-11T17:05:36.643Z,1004.28
2023-03-11T17:06:36.670Z,1004.24
2023-03-11T17:07:39.286Z,1004.30
2023-03-11T17:08:36.656Z,1004.33
2023-03-11T17:09:36.656Z,1004.31
2023-03-11T17:10:36.689Z,1004.33
2023-03-11T17:11:36.667Z,1004.36
2023-03-11T17:12:36.675Z,1004.36
2023-03-11T17:13:36.665Z,1004.36
2023-03-11T17:14:36.673Z,1004.36
2023-03-11T17:15:36.681Z,1004.41
2023-03-11T17:16:36.716Z,1004.39
2023-03-11T17:17:36.693Z,1004.41
2023-03-11T17:18:36.684Z,1004.40
2023-03-11T17:19:36.690Z,1004.44
2023-03-11T17:20:36.694Z,1004.43
2023-03-11T17:21:36.708Z,1004.46
2023-03-11T17:22:36.726Z,1004.49
2023-03-11T17:23:36.720Z,1004.53
2023-03-11T17:24:36.708Z,1004.56
2023-03-11T17:25:36.716Z,1004.52
2023-03-11T17:26:36.715Z,1004.50
2023-03-11T17:27:36.732Z,1004.53
2023-03-11T17:28:36.730Z,1004.52
2023-03-11T17:29:36.741Z,1004.53
2023-03-11T17:30:37.586Z,1004.53
2023-03-11T17:31:36.843Z,1004.52
2023-03-11T17:32:36.779Z,1004.48
2023-03-11T17:33:36.746Z,1004.54
2023-03-11T17:34:36.748Z,1004.55
2023-03-11T17:35:36.793Z,1004.57
2023-03-11T17:36:36.754Z,1004.55
2023-03-11T17:37:36.757Z,1004.58
2023-03-11T17:38:36.779Z,1004.53
2023-03-11T17:39:36.757Z,1004.56
2023-03-11T17:40:36.763Z,1004.56
2023-03-11T17:41:36.761Z,1004.57
2023-03-11T17:42:36.766Z,1004.59
2023-03-11T17:43:36.773Z,1004.58
2023-03-11T17:44:50.693Z,1004.57
2023-03-11T17:45:36.781Z,1004.61
2023-03-11T17:46:36.869Z,1004.62
2023-03-11T17:47:36.851Z,1004.64
2023-03-11T17:48:36.790Z,1004.67
2023-03-11T17:49:36.811Z,1004.64
2023-03-11T17:50:36.796Z,1004.64
2023-03-11T17:51:36.828Z,1004.66
2023-03-11T17:52:36.795Z,1004.68
2023-03-11T17:53:36.802Z,1004.66
2023-03-11T17:54:36.835Z,1004.66
2023-03-11T17:55:36.808Z,1004.68
2023-03-11T17:56:36.830Z,1004.69
2023-03-11T17:57:45.190Z,1004.73
2023-03-11T17:58:36.822Z,1004.72
2023-03-11T17:59:36.955Z,1004.71
2023-03-11T18:00:36.822Z,1004.74
2023-03-11T18:01:36.836Z,1004.71
2023-03-11T18:02:36.851Z,1004.74
2023-03-11T18:03:36.888Z,1004.74
2023-03-11T18:04:36.834Z,1004.73
2023-03-11T18:05:36.867Z,1004.72
2023-03-11T18:06:36.830Z,1004.75
2023-03-11T18:07:36.846Z,1004.77
2023-03-11T18:08:36.854Z,1004.73
2023-03-11T18:09:36.848Z,1004.73
2023-03-11T18:10:36.868Z,1004.75
2023-03-11T18:11:36.851Z,1004.72
2023-03-11T18:12:36.854Z,1004.76
2023-03-11T18:13:36.851Z,1004.77
2023-03-11T18:14:36.886Z,1004.77
2023-03-11T18:15:36.854Z,1004.74
2023-03-11T18:16:36.922Z,1004.75
2023-03-11T18:17:36.870Z,1004.74
2023-03-11T18:18:36.874Z,1004.74
2023-03-11T18:19:36.872Z,1004.74
2023-03-11T18:20:36.870Z,1004.77
2023-03-11T18:21:36.907Z,1004.73
2023-03-11T18:22:38.585Z,1004.77
2023-03-11T18:23:36.875Z,1004.76
2023-03-11T18:24:36.886Z,1004.74
2023-03-11T18:25:36.879Z,1004.76
2023-03-11T18:26:36.916Z,1004.77
2023-03-11T18:27:36.919Z,1004.77
2023-03-11T18:28:36.895Z,1004.78
2023-03-11T18:29:36.898Z,1004.74
2023-03-11T18:30:36.903Z,1004.77
2023-03-11T18:31:36.959Z,1004.75
2023-03-11T18:32:36.938Z,1004.76
2023-03-11T18:33:36.929Z,1004.83
2023-03-11T18:34:36.906Z,1004.80
2023-03-11T18:35:36.935Z,1004.82
2023-03-11T18:36:36.919Z,1004.81
2023-03-11T18:37:36.920Z,1004.81
2023-03-11T18:38:36.928Z,1004.86
2023-03-11T18:39:36.917Z,1004.82
2023-03-11T18:40:36.923Z,1004.85
2023-03-11T18:41:36.928Z,1004.78
2023-03-11T18:42:36.958Z,1004.79
2023-03-11T18:43:36.938Z,1004.82
2023-03-11T18:44:37.122Z,1004.82
2023-03-11T18:45:36.936Z,1004.82
2023-03-11T18:46:36.940Z,1004.81
2023-03-11T18:47:36.954Z,1004.78
2023-03-11T18:48:36.943Z,1004.84
2023-03-11T18:49:36.944Z,1004.86
2023-03-11T18:50:36.954Z,1004.87
2023-03-11T18:51:36.948Z,1004.89
2023-03-11T18:52:36.956Z,1004.87
2023-03-11T18:53:36.965Z,1004.86
2023-03-11T18:54:36.961Z,1004.88
2023-03-11T18:55:36.964Z,1004.84
2023-03-11T18:56:36.964Z,1004.86
2023-03-11T18:57:36.963Z,1004.88
2023-03-11T18:58:36.993Z,1004.87
2023-03-11T18:59:36.969Z,1004.90
2023-03-11T19:00:36.975Z,1004.86
2023-03-11T19:01:37.090Z,1004.87
2023-03-11T19:02:36.986Z,1004.88
2023-03-11T19:03:36.985Z,1004.87
2023-03-11T19:04:37.027Z,1004.90
2023-03-11T19:05:37.001Z,1004.89
2023-03-11T19:06:36.996Z,1004.90
2023-03-11T19:07:36.997Z,1004.94
2023-03-11T19:08:37.002Z,1004.94
2023-03-11T19:09:37.004Z,1004.92
2023-03-11T19:10:37.002Z,1004.97
2023-03-11T19:11:37.001Z,1004.97
2023-03-11T19:12:37.010Z,1005.02
2023-03-11T19:13:46.357Z,1005.03
2023-03-11T19:14:37.027Z,1005.03
2023-03-11T19:15:37.018Z,1005.04
2023-03-11T19:16:37.106Z,1005.05
2023-03-11T19:17:37.020Z,1005.06
2023-03-11T19:18:37.014Z,1005.02
2023-03-11T19:19:37.037Z,1005.02
2023-03-11T19:20:37.034Z,1005.05
2023-03-11T19:21:37.024Z,1005.04
2023-03-11T19:22:37.042Z,1005.01
2023-03-11T19:23:37.027Z,1005.05
2023-03-11T19:24:37.032Z,1005.08
2023-03-11T19:25:37.041Z,1005.05
2023-03-11T19:26:44.795Z,1005.06
2023-03-11T19:27:37.041Z,1005.12
2023-03-11T19:28:37.066Z,1005.13
2023-03-11T19:29:37.041Z,1005.12
2023-03-11T19:30:37.140Z,1005.15
2023-03-11T19:31:37.046Z,1005.11
2023-03-11T19:32:37.170Z,1005.12
2023-03-11T19:33:37.056Z,1005.14
2023-03-11T19:34:37.052Z,1005.10
2023-03-11T19:35:37.089Z,1005.13
2023-03-11T19:36:37.057Z,1005.16
2023-03-11T19:37:37.064Z,1005.12
2023-03-11T19:38:37.064Z,1005.12
2023-03-11T19:39:37.062Z,1005.15
2023-03-11T19:40:37.069Z,1005.10
2023-03-11T19:41:37.084Z,1005.16
2023-03-11T19:42:37.072Z,1005.14
2023-03-11T19:43:37.092Z,1005.18
2023-03-11T19:44:37.077Z,1005.11
2023-03-11T19:45:37.080Z,1005.12
2023-03-11T19:46:37.163Z,1005.13
2023-03-11T19:47:37.100Z,1005.14
2023-03-11T19:49:39.710Z,1005.16
2023-03-11T19:50:39.672Z,1005.16
2023-03-11T19:51:49.565Z,1005.15
2023-03-11T19:52:39.673Z,1005.19
2023-03-11T19:53:39.689Z,1005.17
2023-03-11T19:54:39.670Z,1005.17
2023-03-11T19:55:39.697Z,1005.17
2023-03-11T19:56:39.668Z,1005.15
2023-03-11T19:57:39.687Z,1005.17
2023-03-11T19:58:39.693Z,1005.18
2023-03-11T19:59:39.710Z,1005.18
2023-03-11T20:00:39.678Z,1005.20
2023-03-11T20:01:39.699Z,1005.19
2023-03-11T20:02:39.730Z,1005.19
2023-03-11T20:03:39.683Z,1005.18
2023-03-11T20:04:42.950Z,1005.19
2023-03-11T20:05:39.693Z,1005.19
2023-03-11T20:06:39.747Z,1005.18
2023-03-11T20:07:39.697Z,1005.20
2023-03-11T20:08:39.691Z,1005.16
2023-03-11T20:09:39.700Z,1005.22
2023-03-11T20:30:18.563Z,1005.29
2023-03-11T20:31:18.662Z,1005.30
2023-03-11T20:32:18.596Z,1005.31
2023-03-11T20:33:18.603Z,1005.34
2023-03-11T20:34:18.617Z,1005.37
2023-03-11T20:35:18.551Z,1005.36
2023-03-11T20:36:18.621Z,1005.39
2023-03-11T20:37:18.537Z,1005.38
2023-03-11T20:38:18.591Z,1005.37
2023-03-11T20:39:18.664Z,1005.42
2023-03-11T20:40:18.533Z,1005.44
2023-03-11T20:41:18.582Z,1005.46
2023-03-11T20:42:18.542Z,1005.42
2023-03-11T20:43:18.552Z,1005.46
2023-03-11T20:44:18.537Z,1005.41
2023-03-11T20:45:18.560Z,1005.50
2023-03-11T20:46:18.767Z,1005.46
2023-03-11T20:47:18.656Z,1005.44
2023-03-11T20:48:18.605Z,1005.42
2023-03-11T20:49:18.543Z,1005.37
2023-03-11T20:50:18.551Z,1005.38
2023-03-11T20:51:18.670Z,1005.39
2023-03-11T20:52:18.545Z,1005.38
2023-03-11T20:53:18.624Z,1005.38
2023-03-11T20:54:18.615Z,1005.39
2023-03-11T20:55:18.544Z,1005.41
2023-03-11T20:56:18.600Z,1005.39
2023-03-11T20:57:18.552Z,1005.38
2023-03-11T20:58:18.639Z,1005.34
2023-03-11T20:59:18.574Z,1005.41
2023-03-11T21:00:18.653Z,1005.36
2023-03-11T21:01:18.667Z,1005.37
2023-03-11T21:02:18.638Z,1005.29
2023-03-11T21:03:18.661Z,1005.29
2023-03-11T21:04:18.626Z,1005.31
2023-03-11T21:05:18.685Z,1005.33
2023-03-11T21:06:18.692Z,1005.35
2023-03-11T21:07:18.589Z,1005.35
2023-03-11T21:08:18.614Z,1005.38
2023-03-11T21:09:18.670Z,1005.43
2023-03-11T21:10:18.568Z,1005.42
2023-03-11T21:11:18.567Z,1005.37
2023-03-11T21:12:18.574Z,1005.40
2023-03-11T21:13:18.569Z,1005.39
2023-03-11T21:14:18.598Z,1005.43
2023-03-11T21:15:18.713Z,1005.38
2023-03-11T21:16:18.657Z,1005.40
2023-03-11T21:17:18.765Z,1005.38
2023-03-11T21:18:18.618Z,1005.32
2023-03-11T21:19:18.718Z,1005.32
2023-03-11T21:20:18.698Z,1005.30
2023-03-11T21:21:18.596Z,1005.37
2023-03-11T21:22:18.639Z,1005.35
2023-03-11T21:23:18.578Z,1005.29
2023-03-11T21:24:18.670Z,1005.36
2023-03-11T21:25:18.601Z,1005.35
2023-03-11T21:26:18.658Z,1005.43
2023-03-11T21:27:18.677Z,1005.44
2023-03-11T21:28:18.603Z,1005.48
2023-03-11T21:29:18.592Z,1005.47
2023-03-11T21:30:18.589Z,1005.44
2023-03-11T21:31:18.749Z,1005.40
2023-03-11T21:32:18.837Z,1005.40
2023-03-11T21:33:18.645Z,1005.35
2023-03-11T21:34:18.685Z,1005.36
2023-03-11T21:35:18.607Z,1005.30
2023-03-11T21:36:18.695Z,1005.27
2023-03-11T21:37:18.710Z,1005.28
2023-03-11T21:38:18.777Z,1005.31
2023-03-11T21:39:18.604Z,1005.27
2023-03-11T21:40:18.713Z,1005.23
2023-03-11T21:41:18.611Z,1005.22
2023-03-11T21:42:18.665Z,1005.20
2023-03-11T21:43:18.684Z,1005.14
2023-03-11T21:44:18.632Z,1005.20
2023-03-11T21:45:18.611Z,1005.23
2023-03-11T21:46:18.675Z,1005.19
2023-03-11T21:47:18.716Z,1005.23
2023-03-11T21:48:18.732Z,1005.21
2023-03-11T21:49:18.778Z,1005.29
2023-03-11T21:50:18.637Z,1005.24
2023-03-11T21:51:18.616Z,1005.26
2023-03-11T21:52:18.764Z,1005.26
2023-03-11T21:53:18.624Z,1005.22
2023-03-11T21:54:18.685Z,1005.18
2023-03-11T21:55:18.721Z,1005.18
2023-03-11T21:56:18.739Z,1005.21
2023-03-11T21:57:18.710Z,1005.17